Time;durP1;ratioP1;P1;durP2;ratioP2;P2;SDS_P1;SDS_P2;PMS_P1;PMS_P2;Temp;Humidity;BMP_temperature;BMP_pressure;BME280_temperature;BME280_humidity;BME280_pressure;Samples;Min_cycle;Max_cycle;Signal;HPM_P1;HPM_P2
2023/03/06 00:01:00;;;;;;;9.48;2.20;;;1.00;99.90;;;;;;4898929;29;20052;-64
2023/03/06 00:03:26;;;;;;;3.00;1.67;;;;;;;;;;4883953;29;20124;-62
2023/03/06 00:05:55;;;;;;;7.05;1.75;;;1.10;99.90;;;;;;4880263;29;20613;-64
2023/03/06 00:08:21;;;;;;;3.33;2.35;;;1.20;99.90;;;;;;4880109;29;20487;-58
2023/03/06 00:10:46;;;;;;;5.35;2.88;;;1.20;99.90;;;;;;4880267;29;20117;-62
2023/03/06 00:13:14;;;;;;;6.38;3.75;;;1.10;99.90;;;;;;4879742;29;20527;-61
2023/03/06 00:15:40;;;;;;;12.18;4.28;;;1.00;99.90;;;;;;4879966;29;20571;-63
2023/03/06 00:18:06;;;;;;;8.10;4.57;;;1.20;99.90;;;;;;4879679;29;20040;-55
2023/03/06 00:20:33;;;;;;;9.38;5.13;;;1.20;99.90;;;;;;4894225;29;20391;-62
2023/03/06 00:22:59;;;;;;;9.55;4.97;;;;;;;;;;4898289;29;20029;-61
2023/03/06 00:25:24;;;;;;;5.80;4.18;;;1.20;99.90;;;;;;4898650;29;20028;-63
2023/03/06 00:27:50;;;;;;;6.28;4.40;;;1.40;99.90;;;;;;4897674;29;20034;-62
2023/03/06 00:30:21;;;;;;;14.88;4.82;;;1.20;99.90;;;;;;4898442;29;20087;-62
2023/03/06 00:32:48;;;;;;;11.38;7.25;;;1.20;99.90;;;;;;4898348;29;20024;-63
2023/03/06 00:35:15;;;;;;;12.48;6.78;;;1.20;99.90;;;;;;4883040;29;20078;-62
2023/03/06 00:37:41;;;;;;;14.43;6.03;;;1.50;99.90;;;;;;4879747;29;20029;-63
2023/03/06 00:40:09;;;;;;;7.45;5.38;;;1.30;99.90;;;;;;4879675;29;20033;-63
2023/03/06 00:42:35;;;;;;;7.95;3.22;;;1.90;99.90;;;;;;4879746;29;20097;-62
2023/03/06 00:45:00;;;;;;;15.38;4.93;;;1.40;99.90;;;;;;4879217;29;20459;-65
2023/03/06 00:47:26;;;;;;;7.35;3.58;;;1.00;99.90;;;;;;4879481;29;20044;-63
2023/03/06 00:49:52;;;;;;;5.93;2.92;;;;;;;;;;4879199;29;20029;-63
2023/03/06 00:52:18;;;;;;;6.82;3.70;;;;;;;;;;4894982;29;20039;-64
2023/03/06 00:54:44;;;;;;;4.70;3.70;;;;;;;;;;4897736;29;20039;-62
2023/03/06 00:57:10;;;;;;;6.95;3.72;;;;;;;;;;4897977;29;20099;-62
2023/03/06 00:59:36;;;;;;;6.78;3.67;;;1.90;99.90;;;;;;4898014;29;20031;-61
2023/03/06 01:02:02;;;;;;;9.18;3.35;;;1.10;99.90;;;;;;4897816;29;20036;-61
2023/03/06 01:04:28;;;;;;;5.53;2.45;;;0.80;99.90;;;;;;4898750;29;20040;-61
2023/03/06 01:06:54;;;;;;;4.53;2.38;;;1.00;99.90;;;;;;4898818;29;20028;-64
2023/03/06 01:09:20;;;;;;;8.65;4.88;;;;;;;;;;4896670;29;20040;-64
2023/03/06 01:11:46;;;;;;;9.70;6.03;;;1.00;99.90;;;;;;4897591;29;20499;-63
2023/03/06 01:14:11;;;;;;;6.65;4.80;;;1.00;99.90;;;;;;4898182;29;20048;-64
2023/03/06 01:16:37;;;;;;;9.15;4.28;;;;;;;;;;4898566;29;20033;-63
2023/03/06 01:19:04;;;;;;;6.72;5.05;;;;;;;;;;4898739;29;20032;-63
2023/03/06 01:21:30;;;;;;;8.30;5.20;;;;;;;;;;4898453;29;20040;-64
2023/03/06 01:23:56;;;;;;;6.40;5.00;;;;;;;;;;4897279;29;20112;-62
2023/03/06 01:26:22;;;;;;;6.05;4.15;;;;;;;;;;4881956;29;20136;-64
2023/03/06 01:28:48;;;;;;;7.10;4.95;;;;;;;;;;4878672;29;20033;-63
2023/03/06 01:31:14;;;;;;;9.45;4.93;;;;;;;;;;4879211;29;20029;-64
2023/03/06 01:33:39;;;;;;;7.25;3.97;;;0.90;99.90;;;;;;4878870;29;20036;-62
2023/03/06 01:36:07;;;;;;;6.03;5.25;;;1.00;99.90;;;;;;4880070;29;20040;-62
2023/03/06 01:38:34;;;;;;;5.40;4.80;;;1.10;99.90;;;;;;4880218;29;20036;-62
2023/03/06 01:41:02;;;;;;;6.93;6.07;;;;;;;;;;4880085;29;20031;-62
2023/03/06 01:43:48;;;;;;;7.05;6.35;;;1.10;99.90;;;;;;4892918;29;20037;-61
2023/03/06 01:46:17;;;;;;;7.38;5.45;;;1.10;99.90;;;;;;4898043;29;20041;-62
2023/03/06 01:48:44;;;;;;;9.07;6.90;;;1.20;99.90;;;;;;4898163;29;20032;-63
2023/03/06 01:51:11;;;;;;;9.88;6.82;;;1.20;99.90;;;;;;4898414;29;20039;-60
2023/03/06 01:53:37;;;;;;;7.88;7.07;;;1.40;99.90;;;;;;4896586;29;20033;-62
2023/03/06 01:56:04;;;;;;;10.00;8.00;;;1.10;99.90;;;;;;4896713;29;20040;-63
2023/03/06 01:58:30;;;;;;;8.60;7.80;;;;;;;;;;4880268;29;20025;-63
2023/03/06 02:00:55;;;;;;;9.13;8.13;;;1.20;99.90;;;;;;4878096;29;20504;-63
2023/03/06 02:03:24;;;;;;;10.55;9.10;;;1.20;99.90;;;;;;4877873;29;20116;-64
2023/03/06 02:05:49;;;;;;;14.32;8.18;;;1.40;99.90;;;;;;4878084;29;20104;-62
2023/03/06 02:08:19;;;;;;;10.35;8.77;;;1.30;99.90;;;;;;4861400;29;20464;-63
2023/03/06 02:11:06;;;;;;;17.40;8.40;;;1.30;99.90;;;;;;4878102;29;20040;-63
2023/03/06 02:13:32;;;;;;;10.15;9.15;;;1.40;99.90;;;;;;4878518;29;20439;-63
2023/03/06 02:15:58;;;;;;;11.20;8.77;;;;;;;;;;4883192;29;20075;-63
2023/03/06 02:18:24;;;;;;;13.68;9.35;;;1.30;99.90;;;;;;4896533;29;20056;-63
2023/03/06 02:20:52;;;;;;;12.77;8.50;;;1.40;99.90;;;;;;4896512;29;20539;-60
2023/03/06 02:23:52;;;;;;;17.65;9.15;;;1.30;99.90;;;;;;4896163;29;20039;-62
2023/03/06 02:26:18;;;;;;;19.02;8.75;;;1.40;99.90;;;;;;4896585;29;20104;-61
2023/03/06 02:28:44;;;;;;;17.30;8.80;;;1.30;99.90;;;;;;4896334;29;20044;-63
2023/03/06 02:31:22;;;;;;;26.33;9.90;;;1.30;99.90;;;;;;4889318;29;20033;-59
2023/03/06 02:34:04;;;;;;;13.20;9.02;;;1.30;99.90;;;;;;4877457;29;20432;-61
2023/03/06 02:36:32;;;;;;;19.55;9.00;;;1.30;99.90;;;;;;4858977;29;20041;-61
2023/03/06 02:38:58;;;;;;;16.90;8.20;;;1.30;99.90;;;;;;4859149;29;20041;-60
2023/03/06 02:41:25;;;;;;;17.02;9.05;;;2.40;99.90;;;;;;4859155;29;20113;-62
2023/03/06 02:43:51;;;;;;;14.25;8.48;;;1.50;99.90;;;;;;4858740;29;20473;-61
2023/03/06 02:46:17;;;;;;;13.00;8.23;;;;;;;;;;4859097;29;20026;-62
2023/03/06 02:48:43;;;;;;;12.07;7.97;;;;;;;;;;4877123;29;20032;-64
2023/03/06 02:51:09;;;;;;;20.25;7.97;;;;;;;;;;4895337;29;20035;-62
2023/03/06 02:53:35;;;;;;;16.00;8.00;;;;;;;;;;4895897;29;20040;-59
2023/03/06 02:56:01;;;;;;;11.73;6.43;;;;;;;;;;4896231;29;20032;-60
2023/03/06 02:58:27;;;;;;;8.05;7.25;;;1.60;99.90;;;;;;4896566;29;20079;-60
2023/03/06 03:00:53;;;;;;;17.15;6.93;;;;;;;;;;4896243;29;20025;-59
2023/03/06 03:03:19;;;;;;;12.13;6.75;;;;;;;;;;4907709;23;20049;-62
2023/03/06 03:05:45;;;;;;;7.60;6.10;;;1.70;99.90;;;;;;4889213;29;20041;-63
2023/03/06 03:08:10;;;;;;;9.05;6.30;;;1.60;99.90;;;;;;4896164;29;20048;-64
2023/03/06 03:10:36;;;;;;;10.23;5.55;;;;;;;;;;4895755;29;20418;-65
2023/03/06 03:13:02;;;;;;;15.70;6.07;;;;;;;;;;4888643;29;20036;-64
2023/03/06 03:15:28;;;;;;;12.32;6.65;;;;;;;;;;4876954;29;20037;-65
2023/03/06 03:17:54;;;;;;;14.88;6.50;;;;;;;;;;4877045;29;20040;-65
2023/03/06 03:20:21;;;;;;;6.68;5.28;;;1.70;99.90;;;;;;4877350;29;20025;-64
2023/03/06 03:22:52;;;;;;;9.30;5.57;;;1.70;99.90;;;;;;4862865;29;20460;-65
2023/03/06 03:25:19;;;;;;;7.38;4.50;;;1.80;99.90;;;;;;4858336;29;20390;-63
2023/03/06 03:27:45;;;;;;;7.82;4.93;;;;;;;;;;4858662;29;20049;-65
2023/03/06 03:30:12;;;;;;;5.88;4.32;;;1.70;99.90;;;;;;4858454;29;20064;-64
2023/03/06 03:32:37;;;;;;;10.38;4.90;;;1.90;99.90;;;;;;4858405;29;20035;-64
2023/03/06 03:35:04;;;;;;;7.35;4.50;;;1.80;99.90;;;;;;4858137;29;20037;-64
2023/03/06 03:37:30;;;;;;;9.93;3.80;;;1.90;99.90;;;;;;4858522;29;20054;-64
2023/03/06 03:39:56;;;;;;;8.50;4.10;;;2.00;99.90;;;;;;4859253;29;20084;-64
2023/03/06 03:42:22;;;;;;;19.95;4.30;;;;;;;;;;4858198;29;20440;-65
2023/03/06 03:44:48;;;;;;;13.38;3.78;;;;;;;;;;4857979;29;20512;-64
2023/03/06 03:47:14;;;;;;;5.28;3.22;;;;;;;;;;4858312;29;20429;-65
2023/03/06 03:49:39;;;;;;;6.78;4.28;;;2.00;99.90;;;;;;4858331;29;20057;-63
2023/03/06 03:52:05;;;;;;;7.28;3.55;;;2.00;99.90;;;;;;4858304;29;20529;-64
2023/03/06 03:54:31;;;;;;;8.98;3.58;;;;;;;;;;4857721;29;20053;-64
2023/03/06 03:56:57;;;;;;;10.55;3.75;;;2.10;99.90;;;;;;4859501;29;20029;-64
2023/03/06 03:59:22;;;;;;;7.15;2.88;;;2.10;99.90;;;;;;4858122;29;20025;-64
2023/03/06 04:01:48;;;;;;;5.18;3.53;;;;;;;;;;4858245;29;20036;-65
2023/03/06 04:04:15;;;;;;;11.45;3.85;;;;;;;;;;4860611;29;20037;-65
2023/03/06 04:06:41;;;;;;;9.45;3.55;;;;;;;;;;4861451;29;20026;-64
2023/03/06 04:09:07;;;;;;;8.25;3.35;;;;;;;;;;4861369;29;20161;-64
2023/03/06 04:11:32;;;;;;;7.60;3.28;;;2.10;99.90;;;;;;4861351;29;20098;-64
2023/03/06 04:13:58;;;;;;;6.82;4.07;;;2.00;99.90;;;;;;4861893;29;20041;-64
2023/03/06 04:16:24;;;;;;;8.27;3.95;;;2.00;99.90;;;;;;4871204;29;20029;-64
2023/03/06 04:18:49;;;;;;;5.90;3.60;;;2.00;99.90;;;;;;4879721;29;20029;-64
2023/03/06 04:21:15;;;;;;;7.22;3.17;;;;;;;;;;4879683;29;20104;-65
2023/03/06 04:23:41;;;;;;;4.93;4.32;;;;;;;;;;4879324;29;20037;-65
2023/03/06 04:26:07;;;;;;;5.32;4.50;;;;;;;;;;4879548;29;20032;-65
2023/03/06 04:28:33;;;;;;;5.18;4.68;;;;;;;;;;4873262;29;20037;-63
2023/03/06 04:30:59;;;;;;;6.95;3.90;;;1.50;99.90;;;;;;4860874;29;20380;-60
2023/03/06 04:33:25;;;;;;;4.43;2.60;;;1.40;99.90;;;;;;4843982;29;20074;-63
2023/03/06 04:35:51;;;;;;;3.10;2.42;;;;;;;;;;4860438;29;20116;-62
2023/03/06 04:38:17;;;;;;;4.03;3.47;;;;;;;;;;4879139;29;20537;-63
2023/03/06 04:40:43;;;;;;;7.32;3.50;;;1.50;99.90;;;;;;4879462;29;20029;-61
2023/03/06 04:43:09;;;;;;;4.78;3.30;;;;;;;;;;4878849;29;20035;-61
2023/03/06 04:45:35;;;;;;;4.75;4.28;;;1.30;99.90;;;;;;4879302;29;20049;-64
2023/03/06 04:48:01;;;;;;;4.38;2.90;;;1.30;99.90;;;;;;4877233;29;20033;-63
2023/03/06 04:50:31;;;;;;;6.72;3.40;;;0.90;99.90;;;;;;4860996;29;20088;-64
2023/03/06 04:52:59;;;;;;;6.70;3.22;;;1.20;99.90;;;;;;4859688;29;20033;-63
2023/03/06 04:55:25;;;;;;;3.08;2.78;;;;;;;;;;4867060;29;20103;-64
2023/03/06 04:57:51;;;;;;;3.90;3.08;;;;;;;;;;4860481;29;20098;-64
2023/03/06 05:00:22;;;;;;;5.85;4.15;;;1.00;99.90;;;;;;4860142;29;20026;-64
2023/03/06 05:02:48;;;;;;;4.32;3.25;;;1.00;99.90;;;;;;4860148;29;20036;-64
2023/03/06 05:05:15;;;;;;;3.47;3.17;;;1.10;99.90;;;;;;4859858;29;20041;-63
2023/03/06 05:07:41;;;;;;;5.22;3.67;;;1.00;99.90;;;;;;4859984;29;20062;-62
2023/03/06 05:10:10;;;;;;;4.60;3.58;;;1.20;99.90;;;;;;4859965;29;20038;-62
2023/03/06 05:12:36;;;;;;;5.93;4.43;;;1.00;99.90;;;;;;4859915;29;20503;-64
2023/03/06 05:15:03;;;;;;;5.03;4.18;;;0.90;99.90;;;;;;4860144;29;20065;-63
2023/03/06 05:17:29;;;;;;;5.95;5.35;;;1.00;99.90;;;;;;4859879;29;20489;-62
2023/03/06 05:19:55;;;;;;;6.18;5.57;;;0.90;99.90;;;;;;4859751;29;20033;-64
2023/03/06 05:22:20;;;;;;;5.78;5.20;;;0.90;99.90;;;;;;4871551;29;20423;-63
2023/03/06 05:24:46;;;;;;;5.43;4.70;;;0.90;99.90;;;;;;4874947;29;20030;-64
2023/03/06 05:27:12;;;;;;;6.28;4.82;;;;;;;;;;4858635;29;20124;-64
2023/03/06 05:29:38;;;;;;;5.28;4.13;;;;;;;;;;4858377;29;20040;-62
2023/03/06 05:32:04;;;;;;;5.65;4.95;;;0.90;99.90;;;;;;4516306;29;10000304;-63
2023/03/06 05:34:30;;;;;;;5.28;3.78;;;;;;;;;;4857468;29;20025;-65
2023/03/06 05:36:56;;;;;;;5.97;3.30;;;;;;;;;;4858501;29;20025;-61
2023/03/06 05:39:21;;;;;;;4.90;3.08;;;1.00;99.90;;;;;;4859151;29;20034;-63
2023/03/06 05:41:47;;;;;;;6.40;3.40;;;;;;;;;;4857498;29;20033;-64
2023/03/06 05:44:13;;;;;;;4.68;4.05;;;0.90;99.90;;;;;;4858065;29;20034;-64
2023/03/06 05:46:39;;;;;;;4.57;3.35;;;;;;;;;;4855597;29;20441;-61
2023/03/06 05:49:05;;;;;;;4.03;3.63;;;;;;;;;;4859073;29;20556;-62
2023/03/06 05:51:30;;;;;;;4.57;4.03;;;1.00;99.90;;;;;;4859208;29;20033;-62
2023/03/06 05:53:56;;;;;;;5.35;4.68;;;0.70;99.90;;;;;;4858912;29;20496;-62
2023/03/06 05:56:22;;;;;;;6.32;5.13;;;;;;;;;;4858891;29;20029;-64
2023/03/06 05:58:49;;;;;;;6.13;4.90;;;;;;;;;;4859153;29;20021;-64
2023/03/06 06:01:18;;;;;;;5.45;4.30;;;1.00;99.90;;;;;;4859035;29;20664;-62
2023/03/06 06:03:44;;;;;;;4.75;3.72;;;;;;;;;;4858735;29;20491;-64
2023/03/06 06:06:11;;;;;;;5.43;4.82;;;0.80;99.90;;;;;;4858632;29;20037;-62
2023/03/06 06:08:38;;;;;;;5.90;3.80;;;;;;;;;;4858573;29;20128;-60
2023/03/06 06:11:04;;;;;;;9.02;4.18;;;3.00;99.90;;;;;;4858570;29;20045;-62
2023/03/06 06:13:31;;;;;;;6.35;5.10;;;0.70;99.90;;;;;;4860328;29;20165;-63
2023/03/06 06:15:57;;;;;;;6.47;5.55;;;;;;;;;;4866209;29;20030;-62
2023/03/06 06:18:23;;;;;;;9.57;5.88;;;;;;;;;;4866975;29;20491;-62
2023/03/06 06:20:49;;;;;;;6.80;6.10;;;;;;;;;;4869436;29;20029;-64
2023/03/06 06:23:15;;;;;;;8.70;6.15;;;;;;;;;;4860606;29;20360;-62
2023/03/06 06:25:41;;;;;;;10.55;6.55;;;;;;;;;;4858228;29;20036;-63
2023/03/06 06:28:07;;;;;;;7.15;6.18;;;;;;;;;;4858547;29;20033;-63
2023/03/06 06:30:33;;;;;;;8.48;5.13;;;0.70;99.90;;;;;;4858462;29;20041;-66
2023/03/06 06:32:59;;;;;;;7.75;6.32;;;;;;;;;;4863558;29;20037;-64
2023/03/06 06:35:25;;;;;;;7.22;6.53;;;0.80;99.90;;;;;;4860105;29;20033;-64
2023/03/06 06:37:52;;;;;;;7.93;7.13;;;;;;;;;;4856696;29;20522;-62
2023/03/06 06:40:18;;;;;;;7.90;6.68;;;0.60;99.90;;;;;;4861730;29;20034;-60
2023/03/06 06:42:45;;;;;;;10.70;7.63;;;0.70;99.90;;;;;;4854024;29;20053;-65
2023/03/06 06:45:11;;;;;;;6.55;5.93;;;0.70;99.90;;;;;;4855840;29;20042;-65
2023/03/06 06:47:40;;;;;;;11.93;6.82;;;0.70;99.90;;;;;;4868183;29;20057;-60
2023/03/06 06:50:09;;;;;;;9.20;6.03;;;0.70;99.90;;;;;;4857727;29;20556;-63
2023/03/06 06:52:35;;;;;;;8.10;7.10;;;;;;;;;;4861388;29;20129;-61
2023/03/06 06:55:01;;;;;;;10.02;7.30;;;;;;;;;;4868898;29;20497;-62
2023/03/06 06:57:27;;;;;;;8.68;7.80;;;;;;;;;;4865797;29;20068;-63
2023/03/06 06:59:53;;;;;;;11.00;7.40;;;;;;;;;;4862830;29;20022;-62
2023/03/06 07:02:19;;;;;;;9.38;8.38;;;0.60;99.90;;;;;;4856940;29;20404;-65
2023/03/06 07:04:44;;;;;;;9.52;8.15;;;0.70;99.90;;;;;;4860501;29;20037;-64
2023/03/06 07:07:10;;;;;;;12.18;9.38;;;;;;;;;;4856587;29;20029;-64
2023/03/06 07:09:38;;;;;;;13.68;9.35;;;;;;;;;;4860756;29;20124;-64
2023/03/06 07:12:05;;;;;;;14.23;10.45;;;0.70;99.90;;;;;;4849385;29;20082;-61
2023/03/06 07:14:31;;;;;;;11.55;9.25;;;0.70;99.90;;;;;;4853097;29;20044;-60
2023/03/06 07:16:57;;;;;;;13.30;9.40;;;;;;;;;;4858317;29;20029;-61
2023/03/06 07:19:23;;;;;;;19.42;9.45;;;;;;;;;;4857793;29;20030;-62
2023/03/06 07:21:49;;;;;;;12.82;7.38;;;;;;;;;;4867471;29;20456;-64
2023/03/06 07:24:15;;;;;;;12.73;8.88;;;;;;;;;;4858359;29;20402;-63
2023/03/06 07:26:46;;;;;;;14.90;7.38;;;0.70;99.90;;;;;;4864940;29;20113;-64
2023/03/06 07:29:12;;;;;;;9.98;7.72;;;0.80;99.90;;;;;;4865996;29;20445;-61
2023/03/06 07:31:38;;;;;;;9.45;7.22;;;;;;;;;;4872273;29;20060;-58
2023/03/06 07:34:04;;;;;;;9.07;6.88;;;;;;;;;;4855410;29;20021;-63
2023/03/06 07:36:30;;;;;;;19.17;7.47;;;;;;;;;;4866261;29;20052;-64
2023/03/06 07:38:56;;;;;;;16.67;6.70;;;;;;;;;;4860410;29;20456;-62
2023/03/06 07:41:22;;;;;;;11.50;7.93;;;1.10;99.90;;;;;;4844779;29;20340;-60
2023/03/06 07:43:48;;;;;;;9.55;8.38;;;;;;;;;;4862407;29;20026;-59
2023/03/06 07:46:14;;;;;;;5.68;4.95;;;;;;;;;;4860675;29;20361;-64
2023/03/06 07:48:41;;;;;;;6.97;5.95;;;;;;;;;;4857012;29;20038;-64
2023/03/06 07:51:14;;;;;;;9.30;7.15;;;1.00;99.90;;;;;;4860747;29;20029;-65
2023/03/06 07:53:39;;;;;;;8.95;6.43;;;1.30;99.90;;;;;;4841814;29;20034;-63
2023/03/06 07:56:09;;;;;;;10.10;5.65;;;1.10;99.90;;;;;;4854433;29;20354;-65
2023/03/06 07:58:37;;;;;;;8.07;6.38;;;1.00;99.90;;;;;;4865633;29;20090;-61
2023/03/06 08:01:08;;;;;;;13.80;4.68;;;1.30;99.90;;;;;;4865136;29;20353;-58
2023/03/06 08:03:35;;;;;;;7.20;3.72;;;1.70;99.90;;;;;;4852314;29;20041;-63
2023/03/06 08:06:21;;;;;;;4.28;3.47;;;1.30;99.90;;;;;;4857190;29;20037;-63
2023/03/06 08:08:48;;;;;;;4.95;3.08;;;1.40;99.90;;;;;;4845848;29;20042;-63
2023/03/06 08:11:16;;;;;;;14.95;3.75;;;1.30;99.90;;;;;;4862022;29;20033;-61
2023/03/06 08:13:42;;;;;;;4.40;3.55;;;1.20;99.90;;;;;;4857270;29;20053;-62
2023/03/06 08:16:09;;;;;;;6.07;4.47;;;1.30;99.90;;;;;;4847253;29;20025;-62
2023/03/06 08:18:35;;;;;;;5.40;4.32;;;;;;;;;;4853180;29;20501;-63
2023/03/06 08:21:13;;;;;;;8.38;4.68;;;1.30;99.90;;;;;;4854018;29;20158;-63
2023/03/06 08:23:39;;;;;;;7.38;4.15;;;;;;;;;;4873585;29;20137;-62
2023/03/06 08:26:07;;;;;;;10.63;5.72;;;1.40;99.90;;;;;;4857072;29;20044;-63
2023/03/06 08:28:33;;;;;;;8.68;6.53;;;1.40;99.90;;;;;;4860628;29;20065;-63
2023/03/06 08:31:11;;;;;;;17.05;4.50;;;1.50;99.90;;;;;;4867437;29;20037;-65
2023/03/06 08:33:37;;;;;;;10.65;4.22;;;;;;;;;;4843321;29;20143;-64
2023/03/06 08:36:03;;;;;;;8.05;3.83;;;1.80;99.90;;;;;;4864258;29;20030;-59
2023/03/06 08:38:29;;;;;;;3.78;2.97;;;;;;;;;;4852543;29;20057;-63
2023/03/06 08:40:55;;;;;;;5.80;2.30;;;1.50;99.90;;;;;;4861209;29;21562;-64
2023/03/06 08:43:21;;;;;;;7.85;2.72;;;;;;;;;;4864103;29;20116;-64
2023/03/06 08:45:54;;;;;;;4.10;1.70;;;1.60;99.90;;;;;;4859927;29;20337;-62
2023/03/06 08:48:20;;;;;;;2.88;1.63;;;;;;;;;;4852115;29;20112;-63
2023/03/06 08:50:46;;;;;;;4.20;2.10;;;;;;;;;;4857346;29;20045;-59
2023/03/06 08:53:12;;;;;;;3.13;1.50;;;2.10;99.90;;;;;;4859788;29;20522;-63
2023/03/06 08:55:38;;;;;;;13.13;1.77;;;;;;;;;;4863190;29;20041;-61
2023/03/06 08:58:04;;;;;;;2.40;1.40;;;;;;;;;;4871795;29;20038;-62
2023/03/06 09:00:31;;;;;;;3.28;1.65;;;1.30;99.90;;;;;;4856584;29;20049;-64
2023/03/06 09:02:57;;;;;;;2.17;1.33;;;;;;;;;;4875073;23;20030;-64
2023/03/06 09:05:23;;;;;;;7.82;1.92;;;1.40;99.90;;;;;;4893448;29;20051;-66
2023/03/06 09:07:49;;;;;;;6.30;1.73;;;;;;;;;;4890315;29;20033;-66
2023/03/06 09:10:18;;;;;;;4.32;1.80;;;1.20;99.90;;;;;;4896102;29;20399;-65
2023/03/06 09:12:44;;;;;;;4.32;1.50;;;;;;;;;;4893682;29;20057;-64
2023/03/06 09:15:11;;;;;;;5.70;1.98;;;1.30;99.90;;;;;;4888600;29;20164;-65
2023/03/06 09:17:37;;;;;;;3.55;1.60;;;;;;;;;;4897394;29;20456;-65
2023/03/06 09:20:04;;;;;;;3.60;1.30;;;1.40;99.90;;;;;;4895511;29;20036;-66
2023/03/06 09:22:31;;;;;;;2.08;1.13;;;;;;;;;;4895882;29;20491;-65
2023/03/06 09:24:57;;;;;;;6.60;1.27;;;;;;;;;;4897150;29;20155;-66
2023/03/06 09:27:23;;;;;;;3.70;1.40;;;;;;;;;;4897568;29;20112;-65
2023/03/06 09:29:49;;;;;;;8.30;1.40;;;;;;;;;;4897518;29;20112;-65
2023/03/06 09:32:15;;;;;;;7.43;1.92;;;1.10;99.90;;;;;;4896001;29;20452;-64
2023/03/06 09:34:40;;;;;;;5.18;1.40;;;1.30;99.90;;;;;;4894956;29;20084;-66
2023/03/06 09:37:06;;;;;;;3.47;1.20;;;1.50;99.90;;;;;;4896714;29;20028;-65
2023/03/06 09:39:32;;;;;;;4.28;2.10;;;;;;;;;;4896595;29;20020;-66
2023/03/06 09:41:58;;;;;;;2.38;1.23;;;;;;;;;;4891523;29;20032;-65
2023/03/06 09:44:27;;;;;;;7.18;1.52;;;1.30;99.90;;;;;;4896304;29;20514;-67
2023/03/06 09:47:08;;;;;;;4.00;1.40;;;1.50;99.90;;;;;;4896910;29;20041;-66
2023/03/06 09:50:03;;;;;;;5.13;1.40;;;1.50;99.90;;;;;;4896566;29;20427;-64
2023/03/06 09:52:29;;;;;;;5.13;1.20;;;;;;;;;;4885730;29;20021;-64
2023/03/06 09:55:01;;;;;;;3.22;1.10;;;1.80;99.90;;;;;;4879202;29;20458;-64
2023/03/06 09:57:40;;;;;;;5.45;1.70;;;1.80;99.90;;;;;;4893498;29;20028;-64
2023/03/06 10:00:15;;;;;;;3.05;1.80;;;1.70;99.90;;;;;;4896333;29;20033;-65
2023/03/06 10:02:46;;;;;;;3.13;1.70;;;1.70;99.90;;;;;;4894077;29;20044;-65
2023/03/06 10:05:39;;;;;;;3.58;1.20;;;1.80;99.90;;;;;;4892612;29;20036;-63
2023/03/06 10:08:16;;;;;;;4.50;1.20;;;1.80;99.90;;;;;;4888061;29;20455;-65
2023/03/06 10:11:03;;;;;;;2.42;1.27;;;1.90;99.90;;;;;;4895214;29;20406;-64
2023/03/06 10:13:37;;;;;;;4.65;2.00;;;1.90;99.90;;;;;;4893130;29;20140;-67
2023/03/06 10:16:13;;;;;;;;;;;1.90;99.90;;;;;;4896318;29;20044;-65
2023/03/06 10:18:39;;;;;;;3.80;1.73;;;;;;;;;;4895824;29;19918;-65
2023/03/06 10:21:20;;;;;;;4.05;2.17;;;1.90;99.90;;;;;;4896498;29;20047;-67
2023/03/06 10:23:56;;;;;;;4.43;1.40;;;1.80;99.90;;;;;;4895708;29;20068;-68
2023/03/06 10:26:26;;;;;;;2.35;1.90;;;1.80;99.90;;;;;;4892165;29;20120;-65
2023/03/06 10:29:10;;;;;;;4.65;1.88;;;1.80;99.90;;;;;;4889674;29;20128;-64
2023/03/06 10:31:39;;;;;;;8.57;1.70;;;1.80;99.90;;;;;;4895788;29;20044;-66
2023/03/06 10:34:05;;;;;;;3.80;1.10;;;;;;;;;;4895511;29;20036;-64
2023/03/06 10:36:31;;;;;;;2.40;1.20;;;;;;;;;;4896065;29;20043;-66
2023/03/06 10:38:58;;;;;;;4.82;1.25;;;1.80;99.90;;;;;;4895441;29;20048;-65
2023/03/06 10:41:34;;;;;;;2.38;1.05;;;1.70;99.90;;;;;;4896061;29;20029;-65
2023/03/06 10:44:00;;;;;;;5.88;1.10;;;;;;;;;;4895290;29;20037;-66
2023/03/06 10:46:31;;;;;;;3.72;1.60;;;1.80;99.90;;;;;;4895695;29;20060;-64
2023/03/06 10:49:08;;;;;;;3.40;1.75;;;1.80;99.90;;;;;;4896070;29;20035;-65
2023/03/06 10:51:34;;;;;;;3.10;1.00;;;;;;;;;;4896221;29;20032;-65
2023/03/06 10:54:00;;;;;;;1.63;0.70;;;;;;;;;;4877872;29;20031;-65
2023/03/06 10:56:32;;;;;;;5.60;1.05;;;1.80;99.90;;;;;;4895487;29;20036;-65
2023/03/06 10:59:24;;;;;;;6.55;1.10;;;1.80;99.90;;;;;;4885760;29;20029;-66
2023/03/06 11:01:57;;;;;;;4.32;1.00;;;1.90;99.90;;;;;;4895408;29;20057;-66
2023/03/06 11:04:24;;;;;;;1.92;0.73;;;2.10;99.90;;;;;;4881305;29;20079;-64
2023/03/06 11:07:13;;;;;;;1.45;0.82;;;1.90;99.90;;;;;;4894043;29;20117;-66
2023/03/06 11:10:00;;;;;;;5.25;1.20;;;1.80;99.90;;;;;;4892430;29;20039;-64
2023/03/06 11:12:33;;;;;;;5.40;1.02;;;1.70;99.90;;;;;;4887723;29;20514;-64
2023/03/06 11:15:13;;;;;;;2.22;1.17;;;1.90;99.90;;;;;;4889931;29;20123;-65
2023/03/06 11:17:53;;;;;;;4.35;0.98;;;0.70;99.90;;;;;;4899830;29;20033;-65
2023/03/06 11:20:46;;;;;;;5.28;0.85;;;2.10;99.90;;;;;;4893889;29;20368;-65
2023/03/06 11:23:19;;;;;;;3.85;1.00;;;2.30;99.90;;;;;;4894644;29;20036;-65
2023/03/06 11:26:18;;;;;;;5.03;1.00;;;2.40;99.90;;;;;;4900038;29;20140;-65
2023/03/06 11:29:02;;;;;;;3.10;1.10;;;2.30;99.90;;;;;;4867523;29;20033;-65
2023/03/06 11:31:32;;;;;;;4.73;2.57;;;3.30;99.90;;;;;;4897834;29;20443;-67
2023/03/06 11:34:11;;;;;;;3.65;1.98;;;2.60;99.90;;;;;;4897793;29;20025;-65
2023/03/06 11:36:37;;;;;;;2.05;1.08;;;;;;;;;;4898570;29;20033;-65
2023/03/06 11:39:21;;;;;;;4.38;1.20;;;2.50;99.90;;;;;;4899341;29;20080;-66
2023/03/06 11:42:01;;;;;;;2.83;0.85;;;2.50;99.90;;;;;;4899187;29;20021;-64
2023/03/06 11:44:47;;;;;;;2.05;0.93;;;2.50;99.90;;;;;;4896265;29;20033;-66
2023/03/06 11:47:35;;;;;;;1.27;0.70;;;2.50;99.90;;;;;;4897915;29;20092;-66
2023/03/06 11:50:13;;;;;;;1.85;0.82;;;2.40;99.90;;;;;;4879652;29;20092;-67
2023/03/06 11:52:39;;;;;;;4.15;2.67;;;;;;;;;;4886180;29;20044;-67
2023/03/06 11:55:05;;;;;;;5.10;1.40;;;;;;;;;;4897987;29;20413;-66
2023/03/06 11:57:43;;;;;;;2.05;0.98;;;2.90;99.90;;;;;;4898727;29;20499;-64
2023/03/06 12:00:35;;;;;;;6.53;0.75;;;3.00;99.90;;;;;;4897722;29;20488;-66
2023/03/06 12:03:30;;;;;;;6.25;0.90;;;3.10;99.90;;;;;;4889595;29;20463;-64
2023/03/06 12:06:43;;;;;;;3.45;1.13;;;3.20;99.90;;;;;;4894331;29;20039;-65
2023/03/06 12:09:11;;;;;;;5.57;0.80;;;3.40;99.90;;;;;;4863262;29;20532;-64
2023/03/06 12:11:46;;;;;;;5.38;0.90;;;3.40;99.90;;;;;;4893943;29;20051;-62
2023/03/06 12:14:17;;;;;;;;;;;3.40;99.90;;;;;;4897512;29;20045;-64
2023/03/06 12:17:05;;;;;;;2.08;1.00;;;3.60;99.90;;;;;;4893134;29;19915;-65
2023/03/06 12:19:32;;;;;;;3.50;1.10;;;;;;;;;;4897333;29;20028;-64
2023/03/06 12:22:19;;;;;;;3.67;0.90;;;3.40;99.90;;;;;;4895656;29;20032;-65
2023/03/06 12:25:28;;;;;;;3.67;1.00;;;3.00;99.90;;;;;;4893469;29;20033;-65
2023/03/06 12:28:12;;;;;;;2.08;0.80;;;3.80;99.90;;;;;;4887029;29;20048;-65
2023/03/06 12:31:01;;;;;;;1.90;1.02;;;3.90;99.90;;;;;;4896033;29;20499;-65
2023/03/06 12:33:27;;;;;;;3.42;0.70;;;;;;;;;;4893722;29;20036;-71
2023/03/06 12:36:06;;;;;;;6.10;1.40;;;4.00;99.90;;;;;;4896498;29;20036;-66
2023/03/06 12:38:53;;;;;;;6.60;1.42;;;3.30;99.90;;;;;;4894334;29;20073;-63
2023/03/06 12:41:24;;;;;;;5.47;1.48;;;3.90;99.90;;;;;;4894259;29;20100;-68
2023/03/06 12:44:14;;;;;;;2.95;1.05;;;4.50;99.90;;;;;;4888138;29;20384;-67
2023/03/06 12:47:01;;;;;;;3.50;1.00;;;4.10;99.90;;;;;;4896831;29;20379;-65
2023/03/06 12:49:29;;;;;;;8.68;1.20;;;4.20;99.90;;;;;;4878368;29;20024;-67
2023/03/06 12:51:56;;;;;;;2.05;1.38;;;4.50;99.90;;;;;;4880446;29;20029;-66
2023/03/06 12:54:26;;;;;;;6.32;2.30;;;4.10;99.90;;;;;;4896778;29;20233;-66
2023/03/06 12:56:53;;;;;;;2.85;1.02;;;4.40;99.90;;;;;;4896886;29;20032;-68
2023/03/06 12:59:48;;;;;;;6.25;1.40;;;4.00;99.90;;;;;;4897398;29;20048;-66
2023/03/06 13:02:35;;;;;;;2.87;1.87;;;4.00;99.90;;;;;;4897693;29;20028;-66
2023/03/06 13:05:13;;;;;;;3.20;1.35;;;4.00;99.90;;;;;;4897340;29;20705;-66
2023/03/06 13:08:03;;;;;;;3.85;1.75;;;3.80;99.90;;;;;;4897823;29;20466;-65
2023/03/06 13:10:34;;;;;;;4.72;1.40;;;4.40;99.90;;;;;;4896724;29;20137;-65
2023/03/06 13:13:32;;;;;;;2.42;1.35;;;4.80;99.90;;;;;;4879737;29;20028;-67
2023/03/06 13:16:32;;;;;;;6.88;1.00;;;5.10;99.90;;;;;;4897275;29;20055;-65
2023/03/06 13:19:30;;;;;;;2.60;1.48;;;5.80;99.90;;;;;;4874761;29;20367;-67
2023/03/06 13:21:56;;;;;;;2.97;1.48;;;;;;;;;;4858461;29;20082;-65
2023/03/06 13:24:23;;;;;;;4.32;1.40;;;6.20;99.90;;;;;;4897111;29;20033;-65
2023/03/06 13:26:49;;;;;;;2.70;1.35;;;;;;;;;;4897026;29;20032;-65
2023/03/06 13:29:36;;;;;;;5.53;1.80;;;5.90;99.90;;;;;;4897728;29;20195;-64
2023/03/06 13:32:02;;;;;;;4.63;1.80;;;5.80;99.90;;;;;;4893928;29;20025;-65
2023/03/06 13:34:30;;;;;;;16.55;2.50;;;6.20;99.90;;;;;;4896444;29;20048;-65
2023/03/06 13:37:18;;;;;;;6.70;1.60;;;6.10;99.90;;;;;;4895735;29;20134;-65
2023/03/06 13:39:59;;;;;;;3.90;1.40;;;6.30;99.90;;;;;;4894954;29;20028;-64
2023/03/06 13:42:55;;;;;;;9.02;2.33;;;6.20;99.90;;;;;;4896824;29;20033;-67
2023/03/06 13:45:43;;;;;;;21.00;1.88;;;6.30;99.90;;;;;;4890223;29;20025;-67